createdAt,value
2023-03-19T00:02:17.817Z,100015.31
2023-03-19T00:05:35.183Z,100007.34
2023-03-19T00:08:38.016Z,100018.06
2023-03-19T00:11:40.764Z,100009.63
2023-03-19T00:14:45.648Z,100023.53
2023-03-19T00:17:48.558Z,100020.41
2023-03-19T00:20:52.997Z,100019.13
2023-03-19T00:23:57.462Z,100019.19
2023-03-19T00:27:00.190Z,100021.94
2023-03-19T00:30:04.738Z,100016.47
2023-03-19T00:33:08.108Z,100022.81
2023-03-19T00:36:16.241Z,100008.88
2023-03-19T00:39:18.889Z,100021.09
2023-03-19T00:42:22.065Z,100032.94
2023-03-19T00:45:24.916Z,100030.41
2023-03-19T00:48:30.406Z,100030.72
2023-03-19T00:51:34.372Z,100030.03
2023-03-19T00:54:39.296Z,100035.44
2023-03-19T00:57:41.953Z,100032.81
2023-03-19T01:00:47.582Z,100029.13
2023-03-19T01:03:52.699Z,100034.31
2023-03-19T01:06:58.328Z,100047.63
2023-03-19T01:10:03.258Z,100047.50
2023-03-19T01:13:06.042Z,100044.63
2023-03-19T01:16:10.011Z,100054.38
2023-03-19T01:19:16.692Z,100058.78
2023-03-19T01:22:27.554Z,100052.50
2023-03-19T01:25:33.309Z,100041.50
2023-03-19T01:28:39.046Z,100045.34
2023-03-19T01:31:41.745Z,100043.09
2023-03-19T01:34:44.671Z,100047.00
2023-03-19T01:37:48.835Z,100040.72
2023-03-19T01:40:52.297Z,100035.81
2023-03-19T01:43:57.099Z,100039.19
2023-03-19T01:47:02.600Z,100035.41
2023-03-19T01:50:06.806Z,100028.94
2023-03-19T01:53:12.884Z,100012.84
2023-03-19T01:56:23.325Z,100040.72
2023-03-19T01:59:32.545Z,100037.06
2023-03-19T02:02:37.862Z,100046.13
2023-03-19T02:05:43.139Z,100027.94
2023-03-19T02:08:52.381Z,100034.16
2023-03-19T02:11:56.244Z,100037.53
2023-03-19T02:15:02.023Z,100037.38
2023-03-19T02:18:14.193Z,100037.16
2023-03-19T02:21:18.472Z,100047.72
2023-03-19T02:24:27.021Z,100036.66
2023-03-19T02:27:37.298Z,100031.38
2023-03-19T02:30:44.449Z,100029.06
2023-03-19T02:34:19.343Z,100034.28
2023-03-19T02:37:29.075Z,100031.47
2023-03-19T02:40:53.248Z,100035.81
2023-03-19T02:43:56.665Z,100038.63
2023-03-19T02:46:59.633Z,100048.50
2023-03-19T02:50:02.422Z,100041.28
2023-03-19T02:53:10.085Z,100043.09
2023-03-19T02:56:13.852Z,100051.19
2023-03-19T02:59:19.658Z,100048.63
2023-03-19T03:02:22.857Z,100046.06
2023-03-19T03:05:26.132Z,100050.69
2023-03-19T03:08:37.548Z,100058.03
2023-03-19T03:11:41.221Z,100057.34
2023-03-19T03:14:48.645Z,100067.31
2023-03-19T03:17:53.592Z,100067.47
2023-03-19T03:20:57.011Z,100060.41
2023-03-19T03:24:09.368Z,100068.78
2023-03-19T03:27:13.373Z,100065.13
2023-03-19T03:30:17.058Z,100063.44
2023-03-19T03:33:36.507Z,100066.38
2023-03-19T03:36:39.289Z,100068.44
2023-03-19T03:39:43.358Z,100076.53
2023-03-19T03:42:46.384Z,100070.31
2023-03-19T03:45:49.809Z,100073.19
2023-03-19T03:49:00.394Z,100070.69
2023-03-19T03:52:10.063Z,100076.31
2023-03-19T03:55:14.152Z,100081.38
2023-03-19T03:58:16.915Z,100085.81
2023-03-19T04:01:23.165Z,100089.56
2023-03-19T04:04:26.594Z,100085.06
2023-03-19T04:07:38.786Z,100079.81
2023-03-19T04:10:43.740Z,100085.94
2023-03-19T04:13:46.910Z,100092.16
2023-03-19T04:16:49.768Z,100087.81
2023-03-19T04:19:58.621Z,100087.03
2023-03-19T04:23:02.552Z,100094.03
2023-03-19T04:26:08.081Z,100100.09
2023-03-19T04:29:10.863Z,100101.00
2023-03-19T04:32:18.644Z,100100.88
2023-03-19T04:35:21.603Z,100097.16
2023-03-19T04:38:26.362Z,100093.44
2023-03-19T04:41:30.435Z,100095.88
2023-03-19T04:44:33.330Z,100090.38
2023-03-19T04:47:36.030Z,100089.75
2023-03-19T04:50:45.505Z,100083.69
2023-03-19T04:53:48.979Z,100101.88
2023-03-19T04:56:53.259Z,100097.91
2023-03-19T04:59:56.892Z,100108.78
2023-03-19T05:02:59.997Z,100106.94
2023-03-19T05:06:02.949Z,100114.09
2023-03-19T05:09:12.427Z,100119.47
2023-03-19T05:12:19.173Z,100117.22
2023-03-19T05:15:36.750Z,100109.72
2023-03-19T05:18:41.257Z,100118.63
2023-03-19T05:21:51.616Z,100120.50
2023-03-19T05:24:54.871Z,100120.41
2023-03-19T05:27:59.085Z,100117.69
2023-03-19T05:31:04.691Z,100118.78
2023-03-19T05:34:07.945Z,100125.38
2023-03-19T05:37:11.064Z,100132.97
2023-03-19T05:40:16.838Z,100135.38
2023-03-19T05:43:20.993Z,100133.66
2023-03-19T05:46:31.356Z,100148.28
2023-03-19T05:49:34.138Z,100149.91
2023-03-19T05:52:37.178Z,100155.25
2023-03-19T05:55:39.941Z,100144.38
2023-03-19T05:58:49.369Z,100146.25
2023-03-19T06:01:55.575Z,100150.63
2023-03-19T06:04:58.320Z,100146.78
2023-03-19T06:08:01.035Z,100153.13
2023-03-19T06:11:04.079Z,100156.94
2023-03-19T06:14:08.364Z,100165.38
2023-03-19T06:17:11.325Z,100170.03
2023-03-19T06:20:14.519Z,100173.44
2023-03-19T06:23:23.341Z,100168.97
2023-03-19T06:26:29.632Z,100173.91
2023-03-19T06:29:36.594Z,100181.78
2023-03-19T06:32:39.359Z,100180.84
2023-03-19T06:35:42.507Z,100181.72
2023-03-19T06:38:46.725Z,100179.44
2023-03-19T06:41:52.748Z,100184.34
2023-03-19T06:44:57.309Z,100175.09
2023-03-19T06:48:02.502Z,100189.03
2023-03-19T06:51:05.805Z,100177.59
2023-03-19T06:54:08.675Z,100188.78
2023-03-19T06:57:13.793Z,100190.44
2023-03-19T07:00:19.525Z,100188.97
2023-03-19T07:03:23.180Z,100184.47
2023-03-19T07:06:26.069Z,100188.91
2023-03-19T07:09:38.144Z,100195.09
2023-03-19T07:12:40.939Z,100195.91
2023-03-19T07:15:52.818Z,100194.94
2023-03-19T07:18:58.629Z,100196.31
2023-03-19T07:22:02.308Z,100202.16
2023-03-19T07:25:09.512Z,100206.63
2023-03-19T07:28:18.279Z,100208.16
2023-03-19T07:31:25.047Z,100213.81
2023-03-19T07:34:41.746Z,100203.94
2023-03-19T07:37:50.751Z,100215.84
2023-03-19T07:41:02.314Z,100215.72
2023-03-19T07:44:06.533Z,100216.00
2023-03-19T07:47:19.112Z,100206.56
2023-03-19T07:50:28.328Z,100208.66
2023-03-19T07:53:33.700Z,100207.31
2023-03-19T07:56:36.462Z,100207.19
2023-03-19T07:59:41.640Z,100213.00
2023-03-19T08:02:48.379Z,100202.97
2023-03-19T08:05:54.991Z,100213.28
2023-03-19T08:08:57.695Z,100219.47
2023-03-19T08:12:04.050Z,100211.44
2023-03-19T08:15:11.524Z,100211.22
2023-03-19T08:18:15.587Z,100219.34
2023-03-19T08:21:18.414Z,100195.88
2023-03-19T08:24:21.407Z,100197.06
2023-03-19T08:27:24.136Z,100193.69
2023-03-19T08:30:27.148Z,100202.06
2023-03-19T08:33:31.804Z,100192.09
2023-03-19T08:36:34.535Z,100204.72
2023-03-19T08:39:37.354Z,100205.50
2023-03-19T08:42:44.431Z,100200.44
2023-03-19T08:45:47.948Z,100194.84
2023-03-19T08:48:52.124Z,100199.16
2023-03-19T08:51:54.891Z,100202.34
2023-03-19T08:54:57.727Z,100192.59
2023-03-19T08:58:00.664Z,100201.38
2023-03-19T09:01:05.222Z,100188.84
2023-03-19T09:04:09.335Z,100193.09
2023-03-19T09:07:15.933Z,100187.59
2023-03-19T09:10:18.837Z,100193.63
2023-03-19T09:13:21.856Z,100190.84
2023-03-19T09:16:26.746Z,100195.94
2023-03-19T09:19:34.319Z,100190.81
2023-03-19T09:22:37.066Z,100193.94
2023-03-19T09:25:39.896Z,100184.50
2023-03-19T09:28:43.621Z,100171.41
2023-03-19T09:31:46.641Z,100171.63
2023-03-19T09:34:51.596Z,100169.69
2023-03-19T09:37:54.287Z,100168.00
2023-03-19T09:41:08.945Z,100164.22
2023-03-19T09:44:15.392Z,100159.16
2023-03-19T09:47:27.633Z,100154.91
2023-03-19T09:50:36.512Z,100157.41
2023-03-19T09:53:47.221Z,100156.78
2023-03-19T09:56:50.213Z,100152.72
2023-03-19T09:59:54.851Z,100144.94
2023-03-19T10:03:04.079Z,100136.53
2023-03-19T10:06:22.268Z,100136.91
2023-03-19T10:09:40.833Z,100130.38
2023-03-19T10:12:52.621Z,100136.66
2023-03-19T10:15:57.218Z,100128.94
2023-03-19T10:19:03.392Z,100119.78
2023-03-19T10:22:13.789Z,100123.78
2023-03-19T10:25:21.182Z,100113.94
2023-03-19T10:28:24.213Z,100117.19
2023-03-19T10:31:29.167Z,100105.59
2023-03-19T10:34:34.807Z,100109.75
2023-03-19T10:37:39.598Z,100100.91
2023-03-19T10:40:49.914Z,100118.47
2023-03-19T10:43:55.801Z,100115.06
2023-03-19T10:47:00.261Z,100105.47
2023-03-19T10:50:04.434Z,100103.44
2023-03-19T10:53:29.830Z,100095.88
2023-03-19T10:56:36.101Z,100097.75
2023-03-19T10:59:39.314Z,100095.88
2023-03-19T11:02:49.265Z,100088.19
2023-03-19T11:06:05.987Z,100090.19
2023-03-19T11:09:20.290Z,100084.13
2023-03-19T11:12:27.262Z,100085.63
2023-03-19T11:15:36.135Z,100080.72
2023-03-19T11:18:44.678Z,100077.66
2023-03-19T11:22:00.119Z,100069.25
2023-03-19T11:25:18.603Z,100068.16
2023-03-19T11:28:26.410Z,100059.31
2023-03-19T11:31:37.303Z,100057.25
2023-03-19T11:34:48.592Z,100047.69
2023-03-19T11:37:55.844Z,100050.19
2023-03-19T11:41:13.410Z,100038.22
2023-03-19T11:44:19.939Z,100042.31
2023-03-19T11:47:32.432Z,100036.13
2023-03-19T11:50:42.546Z,100036.72
2023-03-19T11:54:00.545Z,100041.44
2023-03-19T11:57:11.378Z,100034.13
2023-03-19T12:00:25.619Z,100026.50
2023-03-19T12:03:56.705Z,100030.00
2023-03-19T12:07:11.501Z,100021.72
2023-03-19T12:10:30.234Z,100024.47
2023-03-19T12:13:46.585Z,100023.34
2023-03-19T12:17:07.143Z,100019.44
2023-03-19T12:20:31.144Z,100023.19
2023-03-19T12:23:46.481Z,100021.53
2023-03-19T12:26:59.819Z,100018.34
2023-03-19T12:30:19.463Z,100017.91
2023-03-19T12:33:41.181Z,100013.94
2023-03-19T12:36:51.784Z,100008.09
2023-03-19T12:40:15.320Z,100008.81
2023-03-19T12:43:21.021Z,99999.06
2023-03-19T12:46:32.136Z,100005.78
2023-03-19T12:49:40.114Z,99997.63
2023-03-19T12:52:44.888Z,100007.84
2023-03-19T12:55:50.823Z,100012.22
2023-03-19T12:59:03.363Z,100010.44
2023-03-19T13:02:27.335Z,100009.16
2023-03-19T13:05:46.009Z,100000.44
2023-03-19T13:08:53.956Z,99995.50
2023-03-19T13:12:02.153Z,100003.81
2023-03-19T13:15:14.209Z,100013.72
2023-03-19T13:18:34.264Z,99986.09
2023-03-19T13:21:39.063Z,99998.38
2023-03-19T13:24:44.644Z,100004.91
2023-03-19T13:27:55.038Z,99997.31
2023-03-19T13:31:03.357Z,100005.63
2023-03-19T13:34:24.040Z,100006.72
2023-03-19T13:37:27.757Z,100012.38
2023-03-19T13:40:42.572Z,100014.53
2023-03-19T13:43:54.047Z,100013.94
2023-03-19T13:46:57.686Z,100014.31
2023-03-19T13:50:27.236Z,100017.66
2023-03-19T13:53:39.861Z,100023.22
2023-03-19T13:57:18.714Z,100039.34
2023-03-19T14:00:59.608Z,100045.53
2023-03-19T14:04:04.001Z,100056.25
2023-03-19T14:07:18.543Z,100059.69
2023-03-19T14:10:27.874Z,100070.94
2023-03-19T14:13:39.600Z,100077.00
2023-03-19T14:16:47.249Z,100075.28
2023-03-19T14:19:52.325Z,100086.25
2023-03-19T14:23:23.358Z,100084.25
2023-03-19T14:26:29.817Z,100075.75
2023-03-19T14:29:36.251Z,100091.91
2023-03-19T14:32:41.828Z,100087.09
2023-03-19T14:35:48.496Z,100100.22
2023-03-19T14:39:05.125Z,100086.28
2023-03-19T14:42:15.150Z,100093.91
2023-03-19T14:45:42.819Z,100094.56
2023-03-19T14:49:32.354Z,100087.56
2023-03-19T14:52:42.560Z,100096.94
2023-03-19T14:55:51.125Z,100093.88
2023-03-19T14:58:55.831Z,100086.66
2023-03-19T15:02:02.789Z,100091.06
2023-03-19T15:05:08.511Z,100090.03
2023-03-19T15:08:14.352Z,100090.00
2023-03-19T15:11:34.869Z,100088.53
2023-03-19T15:14:54.858Z,100089.72
2023-03-19T15:18:04.043Z,100094.88
2023-03-19T15:21:07.786Z,100091.00
2023-03-19T15:24:17.174Z,100087.66
2023-03-19T15:27:26.885Z,100092.63
2023-03-19T15:30:30.491Z,100089.00
2023-03-19T15:33:40.071Z,100090.66
2023-03-19T15:36:44.192Z,100096.91
2023-03-19T15:39:51.655Z,100091.44
2023-03-19T15:42:56.866Z,100099.75
2023-03-19T15:45:59.606Z,100096.84
2023-03-19T15:49:07.917Z,100103.72
2023-03-19T15:52:15.850Z,100097.44
2023-03-19T15:55:21.180Z,100098.38
2023-03-19T15:58:27.705Z,100098.53
2023-03-19T16:01:33.651Z,100102.03
2023-03-19T16:05:03.721Z,100116.94
2023-03-19T16:08:01.106Z,100118.53
2023-03-19T16:11:27.193Z,100124.22
2023-03-19T16:14:41.093Z,100131.66
2023-03-19T16:17:43.899Z,100130.66
2023-03-19T16:21:01.867Z,100133.63
2023-03-19T16:24:14.578Z,100144.38
2023-03-19T16:27:19.447Z,100144.75
2023-03-19T16:30:26.270Z,100147.31
2023-03-19T16:33:37.592Z,100152.63
2023-03-19T16:36:47.662Z,100155.84
2023-03-19T16:39:57.678Z,100153.13
2023-03-19T16:43:08.403Z,100160.16
2023-03-19T16:46:16.625Z,100164.63
2023-03-19T16:49:22.612Z,100164.81
2023-03-19T16:52:28.424Z,100171.03
2023-03-19T16:55:33.914Z,100173.56
2023-03-19T16:58:37.694Z,100169.63
2023-03-19T17:01:41.930Z,100183.84
2023-03-19T17:04:44.995Z,100183.63
2023-03-19T17:07:47.763Z,100179.66
2023-03-19T17:10:52.855Z,100200.84
2023-03-19T17:13:58.664Z,100185.31
2023-03-19T17:17:02.847Z,100202.53
2023-03-19T17:20:06.936Z,100202.91
2023-03-19T17:23:12.321Z,100210.63
2023-03-19T17:26:17.957Z,100217.84
2023-03-19T17:29:23.078Z,100224.00
2023-03-19T17:32:28.238Z,100231.47
2023-03-19T17:35:31.496Z,100232.06
2023-03-19T17:38:34.889Z,100230.88
2023-03-19T17:41:37.755Z,100230.41
2023-03-19T17:44:40.586Z,100238.28
2023-03-19T17:47:50.019Z,100250.47
2023-03-19T17:50:55.906Z,100246.22
2023-03-19T17:53:58.821Z,100253.16
2023-03-19T17:57:01.504Z,100246.31
2023-03-19T18:00:04.890Z,100261.97
2023-03-19T18:03:14.774Z,100261.53
2023-03-19T18:06:19.938Z,100267.31
2023-03-19T18:09:24.419Z,100272.28
2023-03-19T18:12:27.075Z,100275.53
2023-03-19T18:15:31.942Z,100277.25
2023-03-19T18:18:36.137Z,100288.50
2023-03-19T18:21:41.313Z,100291.84
2023-03-19T18:24:45.080Z,100286.41
2023-03-19T18:27:49.562Z,100310.56
2023-03-19T18:30:54.982Z,100306.47
2023-03-19T18:34:05.544Z,100306.09
2023-03-19T18:37:08.412Z,100307.31
2023-03-19T18:40:15.675Z,100306.69
2023-03-19T18:43:18.597Z,100314.44
2023-03-19T18:46:23.839Z,100325.59
2023-03-19T18:49:28.459Z,100322.38
2023-03-19T18:52:40.257Z,100328.06
2023-03-19T18:55:46.322Z,100337.25
2023-03-19T18:58:49.345Z,100340.50
2023-03-19T19:02:29.589Z,100350.06
2023-03-19T19:05:34.587Z,100351.00
2023-03-19T19:08:37.365Z,100351.88
2023-03-19T19:11:49.151Z,100346.00
2023-03-19T19:14:59.081Z,100357.03
2023-03-19T19:18:04.048Z,100359.53
2023-03-19T19:21:08.167Z,100358.34
2023-03-19T19:24:11.002Z,100357.47
2023-03-19T19:27:18.538Z,100361.38
2023-03-19T19:30:24.206Z,100376.09
2023-03-19T19:33:31.204Z,100369.31
2023-03-19T19:36:36.082Z,100373.09
2023-03-19T19:39:38.788Z,100373.78
2023-03-19T19:42:42.376Z,100382.81
2023-03-19T19:45:47.206Z,100381.50
2023-03-19T19:48:51.231Z,100383.66
2023-03-19T19:51:56.152Z,100386.75
2023-03-19T19:54:58.864Z,100386.81
2023-03-19T19:58:02.779Z,100391.38
2023-03-19T20:01:08.031Z,100389.78
2023-03-19T20:04:14.672Z,100398.50
2023-03-19T20:07:18.890Z,100403.94
2023-03-19T20:10:23.754Z,100408.84
2023-03-19T20:13:30.093Z,100406.00
2023-03-19T20:16:32.772Z,100405.13
2023-03-19T20:19:35.560Z,100423.25
2023-03-19T20:22:40.139Z,100413.44
2023-03-19T20:25:45.417Z,100429.16
2023-03-19T20:28:48.542Z,100428.97
2023-03-19T20:31:51.264Z,100430.66
2023-03-19T20:34:54.136Z,100424.91
2023-03-19T20:38:00.337Z,100431.88
2023-03-19T20:41:03.728Z,100429.00
2023-03-19T20:44:07.172Z,100433.03
2023-03-19T20:47:16.964Z,100442.44
2023-03-19T20:50:23.666Z,100444.53
2023-03-19T20:53:31.006Z,100443.09
2023-03-19T20:56:37.648Z,100448.06
2023-03-19T20:59:40.527Z,100450.34
2023-03-19T21:02:43.973Z,100448.06
2023-03-19T21:05:48.121Z,100456.59
2023-03-19T21:08:57.605Z,100464.28
2023-03-19T21:12:01.156Z,100467.25
2023-03-19T21:15:04.166Z,100471.25
2023-03-19T21:18:07.459Z,100455.53
2023-03-19T21:21:13.627Z,100468.25
2023-03-19T21:24:20.067Z,100480.22
2023-03-19T21:27:25.994Z,100471.53
2023-03-19T21:30:29.036Z,100458.69
2023-03-19T21:33:33.267Z,100481.13
2023-03-19T21:36:35.974Z,100482.34
2023-03-19T21:39:42.773Z,100476.25
2023-03-19T21:42:47.969Z,100479.13
2023-03-19T21:45:52.453Z,100489.28
2023-03-19T21:48:58.483Z,100485.84
2023-03-19T21:52:03.719Z,100489.59
2023-03-19T21:55:09.165Z,100497.78
2023-03-19T21:58:13.596Z,100501.56
2023-03-19T22:01:22.172Z,100498.09
2023-03-19T22:04:27.159Z,100495.50
2023-03-19T22:07:30.141Z,100498.38
2023-03-19T22:10:34.418Z,100505.78
2023-03-19T22:13:40.169Z,100517.53
2023-03-19T22:16:53.088Z,100515.09
2023-03-19T22:19:56.529Z,100510.69
2023-03-19T22:22:59.423Z,100515.25
2023-03-19T22:26:03.516Z,100518.03
2023-03-19T22:29:15.933Z,100519.00
2023-03-19T22:32:19.967Z,100523.56
2023-03-19T22:35:24.898Z,100521.66
2023-03-19T22:38:27.885Z,100528.84
2023-03-19T22:41:34.657Z,100530.81
2023-03-19T22:44:37.661Z,100530.94
2023-03-19T22:47:40.565Z,100534.53
2023-03-19T22:50:43.892Z,100527.25
2023-03-19T22:53:50.039Z,100532.56
2023-03-19T22:56:54.128Z,100541.41
2023-03-19T22:59:58.970Z,100539.41
2023-03-19T23:03:04.408Z,100541.06
2023-03-19T23:06:27.012Z,100524.69
2023-03-19T23:09:35.696Z,100527.09
2023-03-19T23:12:42.218Z,100513.38
2023-03-19T23:15:46.950Z,100515.06
2023-03-19T23:18:50.371Z,100501.50
2023-03-19T23:21:53.645Z,100510.31
2023-03-19T23:25:01.560Z,100504.00
2023-03-19T23:28:05.980Z,100503.16
2023-03-19T23:31:10.884Z,100504.03
2023-03-19T23:34:14.866Z,100503.09
2023-03-19T23:37:18.256Z,100506.75
2023-03-19T23:40:20.996Z,100508.56
2023-03-19T23:43:29.911Z,100504.13
2023-03-19T23:46:35.451Z,100499.75
2023-03-19T23:49:38.172Z,100496.19
2023-03-19T23:52:41.084Z,100506.22
2023-03-19T23:55:46.120Z,100502.78
2023-03-19T23:58:51.886Z,100514.56
